Time;durP1;ratioP1;P1;durP2;ratioP2;P2;SDS_P1;SDS_P2;PMS_P1;PMS_P2;Temp;Humidity;BMP_temperature;BMP_pressure;BME280_temperature;BME280_humidity;BME280_pressure;Samples;Min_cycle;Max_cycle;Signal;HPM_P1;HPM_P2
2023/03/25 00:01:07;;;;;;;11.63;1.63;;;;;;;15.05;77.19;100101.13;6192742;23;20033;-90
2023/03/25 00:03:37;;;;;;;10.80;1.77;;;;;;;15.04;77.40;100100.31;6192586;23;20013;-92
2023/03/25 00:06:05;;;;;;;4.60;1.77;;;;;;;15.08;77.62;100100.72;6191723;23;20004;-91
2023/03/25 00:08:31;;;;;;;5.15;1.70;;;;;;;15.30;76.28;100099.53;6189726;23;20136;-89
2023/03/25 00:10:59;;;;;;;6.70;2.40;;;;;;;15.34;76.52;100095.44;6189987;23;20360;-89
2023/03/25 00:13:25;;;;;;;5.25;1.67;;;;;;;15.34;76.29;100096.25;6164214;23;20017;-87
2023/03/25 00:15:56;;;;;;;5.82;1.73;;;;;;;15.23;77.25;100099.53;6163526;23;20387;-88
2023/03/25 00:18:23;;;;;;;6.47;1.55;;;;;;;15.10;78.55;100099.50;6189854;23;20009;-89
2023/03/25 00:20:50;;;;;;;6.35;1.55;;;;;;;15.28;77.36;100096.25;6191896;23;20009;-90
2023/03/25 00:23:18;;;;;;;6.30;1.40;;;;;;;15.38;76.95;100092.13;6163652;23;20058;-89
2023/03/25 00:25:44;;;;;;;5.15;1.80;;;;;;;15.41;76.93;100089.06;6190530;23;20009;-89
2023/03/25 00:28:10;;;;;;;6.40;1.60;;;;;;;15.55;76.40;100081.91;6188866;23;20063;-91
2023/03/25 00:30:40;;;;;;;8.43;1.95;;;;;;;15.19;79.71;100086.75;6190110;23;20087;-91
2023/03/25 00:33:09;;;;;;;7.80;2.35;;;;;;;15.27;79.58;100086.59;6188042;23;20332;-90
2023/03/25 00:35:37;;;;;;;4.00;1.60;;;;;;;15.22;80.50;100086.34;6190027;23;20009;-89
2023/03/25 00:38:03;;;;;;;4.63;1.65;;;;;;;15.38;79.61;100077.97;6189874;23;20017;-89
2023/03/25 00:40:33;;;;;;;3.90;1.75;;;;;;;15.33;80.26;100088.44;6189713;23;20009;-90
2023/03/25 00:43:01;;;;;;;4.22;1.95;;;;;;;15.15;81.60;100086.34;6187195;23;20013;-93
2023/03/25 00:45:27;;;;;;;8.45;1.70;;;;;;;15.05;83.04;100082.44;6162266;23;20017;-89
2023/03/25 00:47:53;;;;;;;6.60;1.80;;;;;;;14.99;83.77;100070.72;6207258;23;20020;-88
2023/03/25 00:50:20;;;;;;;4.28;2.30;;;;;;;14.73;85.78;100070.63;6176100;23;20021;-90
2023/03/25 00:52:45;;;;;;;9.75;2.20;;;;;;;14.64;87.11;100077.16;6164854;23;20013;-90
2023/03/25 00:55:12;;;;;;;6.30;2.40;;;;;;;14.66;86.94;100067.94;6198076;23;20506;-89
2023/03/25 00:57:37;;;;;;;5.57;2.47;;;;;;;14.63;87.06;100070.19;6144692;23;20013;-89
2023/03/25 01:00:07;;;;;;;4.38;2.05;;;;;;;14.72;86.56;100072.47;6193928;23;20021;-89
2023/03/25 01:02:34;;;;;;;9.15;2.97;;;;;;;14.78;85.57;100074.34;6145724;23;20045;-88
2023/03/25 01:05:01;;;;;;;8.98;2.45;;;;;;;14.77;84.70;100071.88;6193582;23;20380;-87
2023/03/25 01:07:28;;;;;;;8.18;2.88;;;;;;;14.74;83.93;100067.78;6170219;23;20013;-87
2023/03/25 01:10:00;;;;;;;6.40;2.60;;;;;;;14.65;84.17;100062.81;6169842;23;20028;-90
2023/03/25 01:12:26;;;;;;;7.53;2.25;;;;;;;14.72;83.03;100056.47;6145722;23;20013;-90
2023/03/25 01:14:53;;;;;;;7.35;2.60;;;;;;;14.75;82.33;100058.72;6194412;23;20087;-91
2023/03/25 01:17:19;;;;;;;6.07;2.25;;;;;;;14.53;82.95;100048.38;6195298;23;20021;-90
2023/03/25 01:19:45;;;;;;;7.28;2.67;;;;;;;14.46;83.58;100048.38;6196012;23;20016;-89
2023/03/25 01:22:12;;;;;;;7.85;2.80;;;;;;;14.39;83.39;100035.00;6193065;23;20379;-90
2023/03/25 01:24:37;;;;;;;11.10;3.03;;;;;;;14.48;82.13;100041.00;6199186;23;20013;-87
2023/03/25 01:27:06;;;;;;;7.50;2.97;;;;;;;14.47;82.94;100039.34;6175095;23;20017;-89
2023/03/25 01:29:34;;;;;;;6.43;2.75;;;;;;;14.47;82.42;100034.84;6175755;23;20069;-91
2023/03/25 01:32:00;;;;;;;4.25;2.78;;;;;;;14.54;81.44;100048.22;6201222;23;20013;-88
2023/03/25 01:34:25;;;;;;;9.32;3.38;;;;;;;14.55;81.65;100035.69;6198491;23;20012;-90
2023/03/25 01:36:54;;;;;;;5.55;2.85;;;;;;;14.57;81.59;100042.47;6171708;23;20009;-90
2023/03/25 01:39:26;;;;;;;6.30;3.17;;;;;;;14.56;81.11;100040.81;6198555;23;20104;-88
2023/03/25 01:41:53;;;;;;;11.20;4.03;;;;;;;14.71;78.94;100036.16;6196461;23;20427;-90
2023/03/25 01:44:19;;;;;;;11.65;4.65;;;;;;;14.72;77.79;100031.63;6195354;23;20399;-89
2023/03/25 01:46:48;;;;;;;9.50;3.92;;;;;;;14.57;78.43;100034.47;6195043;23;20013;-87
2023/03/25 01:49:25;;;;;;;8.60;4.47;;;;;;;14.51;78.91;100035.28;6163587;23;20009;-89
2023/03/25 01:52:00;;;;;;;10.27;4.32;;;;;;;14.48;79.09;100025.00;6189991;23;20017;-90
2023/03/25 01:54:26;;;;;;;8.02;4.07;;;;;;;14.56;79.58;100016.81;6163516;23;20013;-89
2023/03/25 01:56:52;;;;;;;17.63;4.10;;;;;;;14.64;80.48;100029.97;6162124;23;20017;-87
2023/03/25 01:59:23;;;;;;;5.88;3.53;;;;;;;14.77;80.16;100034.53;6187051;23;20005;-90
2023/03/25 02:01:50;;;;;;;7.03;4.03;;;;;;;14.75;79.64;100034.72;6192720;23;20088;-90
2023/03/25 02:04:41;;;;;;;9.52;4.10;;;;;;;14.63;79.99;100027.50;6192627;23;20064;-89
2023/03/25 02:07:11;;;;;;;7.97;4.43;;;;;;;14.47;81.45;100012.69;6197633;23;20017;-91
2023/03/25 02:09:37;;;;;;;11.50;4.90;;;;;;;14.43;81.73;100016.78;6196798;23;20013;-90
2023/03/25 02:12:05;;;;;;;10.93;4.72;;;;;;;14.50;81.91;100012.28;6203010;23;20057;-89
2023/03/25 02:14:34;;;;;;;9.20;4.45;;;;;;;14.41;83.96;100014.31;6184949;23;20020;-90
2023/03/25 02:17:27;;;;;;;6.97;4.50;;;;;;;14.53;83.53;100011.88;6214992;22;20746;-89
2023/03/25 02:20:07;;;;;;;10.55;4.20;;;;;;;14.53;83.03;99995.88;6241118;23;20016;-90
2023/03/25 02:23:06;;;;;;;8.90;3.67;;;;;;;14.45;83.76;99994.22;6241675;23;20006;-89
2023/03/25 02:25:38;;;;;;;13.75;4.60;;;;;;;13.86;89.41;99993.91;6214842;23;20067;-90
2023/03/25 02:28:12;;;;;;;9.60;4.40;;;;;;;13.97;89.53;99989.88;6201521;23;20024;-90
2023/03/25 02:31:03;;;;;;;8.93;4.65;;;;;;;14.04;89.37;99988.06;6227285;23;20324;-89
2023/03/25 02:33:54;;;;;;;10.85;4.28;;;;;;;14.02;90.04;99981.31;6238643;23;20016;-91
2023/03/25 02:39:39;;;;;;;13.90;4.35;;;;;;;13.98;91.27;99981.69;6241960;22;20013;-89
2023/03/25 02:42:28;;;;;;;11.13;4.82;;;;;;;13.88;92.79;99986.56;6242623;22;20016;-86
2023/03/25 02:45:02;;;;;;;9.27;4.43;;;;;;;13.90;92.47;99984.50;6202764;23;20017;-90
2023/03/25 02:47:36;;;;;;;9.82;3.95;;;;;;;14.09;90.29;99992.78;6169390;23;20087;-90
2023/03/25 02:50:08;;;;;;;7.00;4.35;;;;;;;14.14;90.11;99998.38;6219931;23;20005;-90
2023/03/25 02:52:39;;;;;;;9.52;4.63;;;;;;;14.10;90.99;99994.44;6219645;23;20062;-90
2023/03/25 02:55:09;;;;;;;8.25;4.10;;;;;;;14.01;92.08;99992.97;6192126;23;20013;-89
2023/03/25 02:57:42;;;;;;;10.57;4.53;;;;;;;13.79;94.05;99998.38;6192284;23;20038;-90
2023/03/25 03:00:14;;;;;;;9.50;4.78;;;;;;;13.84;94.25;99995.97;6218634;23;20039;-89
2023/03/25 03:03:04;;;;;;;6.05;4.10;;;;;;;13.84;94.28;100001.28;6193092;23;20032;-89
2023/03/25 03:05:34;;;;;;;10.90;4.85;;;;;;;13.71;95.33;100000.38;6191329;23;20019;-88
2023/03/25 03:08:09;;;;;;;10.05;4.82;;;;;;;13.75;95.66;100005.13;6193679;23;20036;-88
2023/03/25 03:10:57;;;;;;;10.13;5.90;;;;;;;13.81;95.61;99998.19;6192510;23;20070;-90
2023/03/25 03:13:41;;;;;;;7.90;4.85;;;;;;;13.82;95.70;100002.50;6168456;23;20336;-91
2023/03/25 03:16:57;;;;;;;12.45;5.40;;;;;;;13.85;95.33;100024.22;6225337;23;20008;-92
2023/03/25 03:19:22;;;;;;;11.50;4.05;;;;;;;13.82;95.15;100024.59;6185353;23;20023;-91
2023/03/25 03:22:26;;;;;;;18.08;4.90;;;;;;;13.69;96.89;100029.03;6192070;23;20009;-89
2023/03/25 03:25:31;;;;;;;9.55;5.03;;;;;;;13.35;100.00;100032.47;6219078;23;20134;-91
2023/03/25 03:28:26;;;;;;;8.80;4.50;;;;;;;13.19;100.00;100027.41;6217749;23;20023;-88
2023/03/25 03:30:58;;;;;;;12.00;4.07;;;;;;;12.72;100.00;100026.09;6159935;23;20013;-92
2023/03/25 03:33:34;;;;;;;8.82;4.28;;;;;;;12.47;100.00;100029.25;6218212;23;20379;-90
2023/03/25 03:36:06;;;;;;;7.57;4.40;;;;;;;12.27;100.00;100029.00;6191592;23;20013;-92
2023/03/25 03:38:57;;;;;;;8.93;4.28;;;;;;;12.33;100.00;100030.91;6217495;23;20052;-88
2023/03/25 03:41:25;;;;;;;8.27;4.63;;;;;;;12.25;100.00;100023.06;6231802;23;20009;-91
2023/03/25 03:44:06;;;;;;;6.43;4.50;;;;;;;12.12;100.00;100028.19;6241711;23;20005;-89
2023/03/25 03:46:40;;;;;;;9.32;4.53;;;;;;;12.17;100.00;100026.63;6239497;22;20079;-90
2023/03/25 03:49:12;;;;;;;12.80;4.75;;;;;;;12.29;100.00;100030.47;6194187;23;20020;-88
2023/03/25 03:51:45;;;;;;;9.73;4.15;;;;;;;12.56;100.00;100031.59;6217524;23;20012;-90
2023/03/25 03:54:20;;;;;;;13.13;4.10;;;;;;;12.75;100.00;100031.03;6217421;23;20059;-88
2023/03/25 03:57:06;;;;;;;7.63;4.13;;;;;;;12.81;100.00;100030.28;6217093;23;20009;-89
2023/03/25 03:59:45;;;;;;;6.45;3.58;;;;;;;12.54;100.00;100024.81;6217260;23;20051;-89
2023/03/25 04:02:22;;;;;;;11.38;4.03;;;;;;;12.16;100.00;100030.31;6191491;23;20020;-89
2023/03/25 04:04:49;;;;;;;8.02;4.38;;;;;;;11.81;100.00;100025.72;6218143;23;20036;-87
2023/03/25 04:07:44;;;;;;;18.20;4.63;;;;;;;11.80;100.00;100032.84;6219789;23;20083;-87
2023/03/25 04:10:28;;;;;;;9.27;4.53;;;;;;;11.91;100.00;100031.56;6196750;23;20150;-89
2023/03/25 04:12:57;;;;;;;11.38;4.65;;;;;;;12.17;100.00;100039.91;6196164;23;20020;-89
2023/03/25 04:19:12;;;;;;;6.95;3.92;;;;;;;12.27;100.00;100047.59;6222831;23;20116;-91
2023/03/25 04:21:38;;;;;;;7.93;3.88;;;;;;;12.39;100.00;100040.81;6226024;23;20009;-91
2023/03/25 04:24:07;;;;;;;6.85;4.47;;;;;;;12.58;100.00;100042.06;6228800;23;20078;-87
2023/03/25 04:26:51;;;;;;;12.40;5.43;;;;;;;12.52;100.00;100046.28;6229858;23;20020;-87
2023/03/25 04:29:17;;;;;;;8.60;4.93;;;;;;;12.62;100.00;100046.81;6229216;23;20023;-90
2023/03/25 04:31:48;;;;;;;10.02;5.10;;;;;;;12.28;100.00;100041.28;6227773;23;20012;-90
2023/03/25 04:34:14;;;;;;;12.75;5.30;;;;;;;12.07;100.00;100041.19;6200614;23;20013;-87
2023/03/25 04:36:58;;;;;;;7.30;4.40;;;;;;;11.93;100.00;100038.34;6226569;23;20023;-89
2023/03/25 04:39:24;;;;;;;11.93;5.03;;;;;;;12.10;100.00;100035.50;6239617;22;20001;-88
2023/03/25 04:41:53;;;;;;;10.32;4.50;;;;;;;12.03;100.00;100039.94;6243188;22;20004;-88
2023/03/25 04:44:20;;;;;;;9.25;4.97;;;;;;;11.86;100.00;100040.06;6217280;23;20048;-91
2023/03/25 04:49:53;;;;;;;13.57;4.53;;;;;;;11.56;100.00;100037.56;6243242;22;20020;-89
2023/03/25 04:52:19;;;;;;;9.25;4.38;;;;;;;11.57;100.00;100039.19;6243293;22;20027;-88
2023/03/25 04:54:45;;;;;;;7.50;4.50;;;;;;;11.52;100.00;100047.69;6243198;22;20057;-87
2023/03/25 04:57:12;;;;;;;11.30;5.20;;;;;;;11.53;100.00;100046.69;6242975;22;20021;-89
2023/03/25 04:59:37;;;;;;;11.50;5.25;;;;;;;11.48;100.00;100046.41;6217350;22;20000;-89
2023/03/25 05:02:05;;;;;;;11.65;5.60;;;;;;;11.35;100.00;100040.88;6243105;22;20027;-87
2023/03/25 05:04:31;;;;;;;12.13;5.80;;;;;;;11.57;100.00;100040.00;6242841;22;20076;-89
2023/03/25 05:10:28;;;;;;;10.43;5.50;;;;;;;11.67;100.00;100045.88;6243109;22;20036;-89
2023/03/25 05:13:03;;;;;;;12.88;5.80;;;;;;;11.43;100.00;100046.13;6243149;22;20003;-89
2023/03/25 05:19:20;;;;;;;14.85;7.28;;;;;;;11.00;100.00;100042.31;6244868;22;20011;-88
2023/03/25 05:21:45;;;;;;;12.25;7.35;;;;;;;10.94;100.00;100050.16;6193802;22;20039;-89
2023/03/25 05:24:12;;;;;;;14.77;7.03;;;;;;;11.30;100.00;100048.56;6244860;22;20013;-89
2023/03/25 05:27:01;;;;;;;13.05;7.35;;;;;;;11.30;100.00;100048.56;6244886;22;20064;-90
2023/03/25 05:29:26;;;;;;;13.05;7.63;;;;;;;11.30;100.00;100043.25;6244615;22;19996;-89
2023/03/25 05:31:52;;;;;;;13.65;6.90;;;;;;;11.43;100.00;100041.63;6218950;22;20109;-88
2023/03/25 05:34:19;;;;;;;13.88;7.00;;;;;;;11.91;100.00;100043.03;6218902;22;20015;-89
2023/03/25 05:37:04;;;;;;;13.27;7.28;;;;;;;12.60;100.00;100051.50;6243983;22;20005;-88
2023/03/25 05:39:30;;;;;;;11.95;7.28;;;;;;;12.70;100.00;100045.88;6244704;22;19993;-89
2023/03/25 05:42:01;;;;;;;15.20;8.07;;;;;;;12.59;100.00;100046.38;6244632;22;20020;-89
2023/03/25 05:44:27;;;;;;;13.32;7.55;;;;;;;13.60;100.00;100038.19;6244657;22;19997;-88
2023/03/25 05:50:41;;;;;;;13.27;6.88;;;;;;;14.26;100.00;100058.91;6242933;22;20014;-89
2023/03/25 05:53:11;;;;;;;14.65;6.90;;;;;;;14.75;98.82;100061.41;6218667;22;20494;-88
2023/03/25 05:55:37;;;;;;;12.85;7.13;;;;;;;14.82;97.13;100062.25;6218611;22;20084;-89
2023/03/25 05:58:03;;;;;;;11.68;6.82;;;;;;;14.79;95.16;100062.66;6244245;22;19996;-88
2023/03/25 06:00:29;;;;;;;14.75;7.70;;;;;;;15.25;89.11;100068.09;6244376;22;20012;-89
2023/03/25 06:02:58;;;;;;;12.38;6.70;;;;;;;16.24;82.09;100068.88;6218589;22;20028;-90
2023/03/25 06:08:49;;;;;;;12.30;6.88;;;;;;;17.07;77.49;100082.41;6244730;22;20007;-90
2023/03/25 06:11:16;;;;;;;12.32;6.60;;;;;;;15.96;81.12;100063.00;6218731;22;19992;-88
2023/03/25 06:13:48;;;;;;;10.02;5.63;;;;;;;16.06;84.55;100074.09;6244358;22;20015;-91
2023/03/25 06:16:20;;;;;;;;;;;;;;;15.78;85.48;100079.66;6244919;22;20031;-90
2023/03/25 06:18:54;;;;;;;10.27;5.50;;;;;;;16.26;83.02;100076.72;6244200;22;19920;-90
2023/03/25 06:21:21;;;;;;;13.05;5.50;;;;;;;17.01;77.29;100082.19;6193675;22;20028;-90
2023/03/25 06:23:48;;;;;;;11.88;6.00;;;;;;;17.17;78.23;100077.41;6217980;23;20019;-90
2023/03/25 06:33:50;;;;;;;16.15;5.53;;;;;;;20.25;59.19;100076.28;6236511;23;20020;-89
2023/03/25 06:36:35;;;;;;;18.40;5.43;;;;;;;19.59;59.56;100087.34;6226342;23;21918;-89
2023/03/25 06:39:03;;;;;;;15.85;5.45;;;;;;;20.57;56.80;100087.50;6207124;23;20009;-89
2023/03/25 06:41:29;;;;;;;12.82;4.82;;;;;;;19.72;60.88;100087.13;6235701;23;19992;-89
2023/03/25 06:44:08;;;;;;;11.73;4.82;;;;;;;20.48;57.92;100078.97;6217779;23;20035;-89
2023/03/25 06:46:47;;;;;;;11.40;4.68;;;;;;;19.92;62.15;100076.88;6242848;22;20017;-88
2023/03/25 06:49:12;;;;;;;13.10;4.88;;;;;;;20.48;57.01;100073.56;6241235;23;20063;-91
2023/03/25 06:51:38;;;;;;;8.75;4.45;;;;;;;20.98;58.90;100073.78;6223577;23;20004;-89
2023/03/25 06:54:03;;;;;;;10.35;4.38;;;;;;;21.00;57.66;100070.84;6219097;23;20428;-91
2023/03/25 06:56:29;;;;;;;15.43;4.25;;;;;;;20.98;58.42;100079.16;6218785;23;20023;-89
2023/03/25 06:58:58;;;;;;;8.80;3.90;;;;;;;22.53;51.81;100075.78;6220334;23;20360;-93
2023/03/25 07:01:23;;;;;;;37.88;18.23;;;;;;;23.16;48.36;100092.22;6199330;23;20016;-90
2023/03/25 07:03:49;;;;;;;31.27;19.80;;;;;;;23.41;47.94;100088.97;6195242;23;20343;-91
2023/03/25 07:06:22;;;;;;;9.40;4.10;;;;;;;23.81;47.28;100091.19;6224439;23;20439;-91
2023/03/25 07:08:54;;;;;;;8.20;3.33;;;;;;;21.48;53.67;100083.84;6224455;23;20020;-90
2023/03/25 07:11:25;;;;;;;10.77;3.33;;;;;;;22.52;52.31;100084.94;6229829;23;20058;-90
2023/03/25 07:13:57;;;;;;;12.77;3.53;;;;;;;21.45;55.46;100084.34;6207591;23;20012;-89
2023/03/25 07:16:27;;;;;;;9.45;3.20;;;;;;;21.25;57.95;100081.28;6211119;23;20252;-86
2023/03/25 07:18:59;;;;;;;13.43;3.50;;;;;;;20.75;60.01;100087.31;6236709;22;20015;-88
2023/03/25 07:21:25;;;;;;;6.73;2.87;;;;;;;21.09;59.44;100082.88;6204902;23;20072;-84
2023/03/25 07:23:51;;;;;;;12.07;3.13;;;;;;;21.32;58.63;100080.09;6220447;23;20001;-86
2023/03/25 07:26:17;;;;;;;11.32;3.55;;;;;;;21.13;59.03;100075.97;6220526;23;20004;-83
2023/03/25 07:28:43;;;;;;;6.28;3.10;;;;;;;21.22;58.73;100089.88;6222361;23;20012;-89
2023/03/25 07:31:13;;;;;;;11.70;3.72;;;;;;;21.78;56.88;100095.16;6193893;23;20493;-89
2023/03/25 07:33:39;;;;;;;11.73;3.30;;;;;;;21.52;57.55;100093.09;6221903;23;20026;-85
2023/03/25 07:36:07;;;;;;;10.75;3.30;;;;;;;20.94;59.12;100096.88;6191877;23;20416;-87
2023/03/25 07:38:34;;;;;;;7.22;3.10;;;;;;;21.78;56.87;100091.63;6191589;23;20066;-87
2023/03/25 07:41:04;;;;;;;11.75;3.75;;;;;;;21.53;56.56;100097.44;6218641;23;20016;-83
2023/03/25 07:43:33;;;;;;;6.00;3.10;;;;;;;21.69;57.55;100107.44;6191642;23;20016;-87
2023/03/25 07:46:22;;;;;;;9.35;3.58;;;;;;;21.59;57.11;100109.94;6218355;23;20013;-81
2023/03/25 07:48:51;;;;;;;6.78;3.33;;;;;;;22.04;54.95;100116.09;6170433;23;20389;-84
2023/03/25 07:51:23;;;;;;;5.60;2.83;;;;;;;22.17;54.08;100104.97;6194954;23;20008;-82
2023/03/25 07:53:51;;;;;;;8.98;3.35;;;;;;;22.34;54.29;100104.13;6219118;23;20092;-80
2023/03/25 07:56:17;;;;;;;10.52;3.03;;;;;;;22.89;52.98;100107.59;6218280;23;20016;-88
2023/03/25 07:58:44;;;;;;;11.60;3.40;;;;;;;23.15;50.33;100106.78;6211710;23;20012;-84
2023/03/25 08:01:12;;;;;;;8.48;3.03;;;;;;;22.96;49.96;100110.91;6217497;23;20020;-83
2023/03/25 08:03:38;;;;;;;6.88;3.22;;;;;;;22.90;50.66;100119.22;6191495;23;20009;-82
2023/03/25 08:06:08;;;;;;;11.52;3.10;;;;;;;23.29;49.08;100120.72;6217366;23;20104;-85
2023/03/25 08:08:34;;;;;;;6.50;3.05;;;;;;;23.55;48.24;100119.94;6216550;23;20007;-81
2023/03/25 08:11:00;;;;;;;8.18;2.95;;;;;;;24.07;47.41;100127.38;6190672;23;20020;-81
2023/03/25 08:13:26;;;;;;;10.18;3.33;;;;;;;23.73;47.84;100118.72;6220165;23;20020;-82
2023/03/25 08:15:52;;;;;;;8.55;2.92;;;;;;;23.16;49.87;100121.13;6216822;23;20016;-82
2023/03/25 08:18:18;;;;;;;9.45;2.80;;;;;;;23.20;48.91;100124.16;6216821;23;20435;-83
2023/03/25 08:20:44;;;;;;;7.18;2.88;;;;;;;24.05;46.04;100127.66;6219946;23;20016;-90
2023/03/25 08:23:11;;;;;;;7.72;2.17;;;;;;;24.55;44.95;100127.19;6193234;23;20009;-87
2023/03/25 08:25:39;;;;;;;7.32;2.47;;;;;;;25.00;44.77;100129.31;6219388;23;20009;-84
2023/03/25 08:28:05;;;;;;;8.65;2.45;;;;;;;25.84;41.95;100137.09;6219462;23;20013;-85
2023/03/25 08:30:37;;;;;;;8.43;2.30;;;;;;;25.82;41.44;100136.53;6220955;23;20059;-88
2023/03/25 08:33:10;;;;;;;8.93;3.22;;;;;;;25.22;43.22;100136.44;6220059;23;20023;-90
2023/03/25 08:35:37;;;;;;;8.18;3.13;;;;;;;24.87;44.59;100127.09;6221036;23;20395;-87
2023/03/25 08:38:06;;;;;;;11.70;2.55;;;;;;;24.79;45.68;100132.19;6192374;23;20012;-91
2023/03/25 08:40:35;;;;;;;10.68;2.80;;;;;;;24.28;46.16;100131.09;6219080;23;20139;-92
2023/03/25 08:43:05;;;;;;;10.02;2.90;;;;;;;24.45;45.10;100129.84;6190643;23;20005;-85
2023/03/25 08:45:33;;;;;;;4.55;2.08;;;;;;;24.14;44.85;100131.53;6217744;23;20014;-90
2023/03/25 08:48:05;;;;;;;5.93;2.47;;;;;;;24.43;43.69;100140.09;6196063;23;20035;-88
2023/03/25 08:50:31;;;;;;;5.88;2.22;;;;;;;24.87;43.64;100134.41;6197925;23;20191;-90
2023/03/25 08:53:00;;;;;;;8.75;2.95;;;;;;;24.84;44.67;100130.31;6219266;23;20340;-92
2023/03/25 08:55:25;;;;;;;9.98;2.30;;;;;;;25.07;44.25;100131.75;6221194;23;20008;-89
2023/03/25 08:57:54;;;;;;;6.68;2.55;;;;;;;25.10;43.91;100129.34;6194432;23;20122;-90
2023/03/25 09:00:23;;;;;;;9.25;2.20;;;;;;;26.18;41.21;100140.88;6219465;23;20013;-89
2023/03/25 09:02:51;;;;;;;6.43;2.65;;;;;;;26.01;39.87;100142.25;6221512;23;20088;-88
2023/03/25 09:05:17;;;;;;;7.55;2.55;;;;;;;26.08;40.11;100150.94;6226079;23;20012;-90
2023/03/25 09:07:44;;;;;;;8.50;2.80;;;;;;;26.34;39.82;100149.84;6220027;23;20012;-86
2023/03/25 09:10:11;;;;;;;9.98;3.13;;;;;;;25.92;40.00;100147.38;6222352;23;20008;-87
2023/03/25 09:12:37;;;;;;;6.05;2.58;;;;;;;26.04;40.54;100145.22;6224220;23;20012;-92
2023/03/25 09:15:09;;;;;;;6.65;2.45;;;;;;;27.13;37.82;100143.59;6196148;23;20043;-86
2023/03/25 09:17:38;;;;;;;13.57;2.40;;;;;;;26.06;39.49;100145.75;6200238;23;20020;-86
2023/03/25 09:20:08;;;;;;;10.45;2.45;;;;;;;26.28;37.69;100144.69;6199796;23;20335;-90
2023/03/25 09:22:35;;;;;;;7.40;2.20;;;;;;;26.16;38.09;100136.78;6195431;23;20005;-89
2023/03/25 09:25:21;;;;;;;7.53;2.90;;;;;;;25.97;38.66;100144.69;6196923;23;20024;-87
2023/03/25 09:27:47;;;;;;;9.02;2.40;;;;;;;26.40;37.49;100129.72;6220425;23;20012;-85
2023/03/25 09:30:14;;;;;;;6.55;2.25;;;;;;;27.23;36.00;100125.31;6220835;23;20004;-86
2023/03/25 09:32:43;;;;;;;6.60;1.75;;;;;;;27.52;33.02;100132.78;6195288;23;20008;-84
2023/03/25 09:35:11;;;;;;;6.35;1.42;;;;;;;27.39;31.67;100136.09;6227740;23;20019;-89
2023/03/25 09:37:42;;;;;;;10.52;2.08;;;;;;;27.98;31.02;100136.75;6206250;23;20012;-90
2023/03/25 09:40:13;;;;;;;4.78;1.80;;;;;;;28.59;29.86;100130.72;6242034;23;20001;-90
2023/03/25 09:42:48;;;;;;;7.63;1.60;;;;;;;27.71;30.49;100123.63;6226851;23;20009;-88
2023/03/25 09:45:33;;;;;;;3.65;1.40;;;;;;;28.08;30.22;100131.25;6221421;23;20068;-90
2023/03/25 09:48:27;;;;;;;7.20;1.85;;;;;;;27.06;31.10;100121.31;6227456;22;20124;-91
2023/03/25 09:50:57;;;;;;;6.93;1.45;;;;;;;27.26;30.38;100123.94;6194538;23;20021;-87
2023/03/25 09:53:52;;;;;;;5.85;1.58;;;;;;;27.67;29.50;100113.63;6222998;23;20088;-91
2023/03/25 09:56:30;;;;;;;11.32;1.73;;;;;;;27.72;28.30;100110.84;6197659;23;20013;-93
2023/03/25 09:59:06;;;;;;;9.90;1.38;;;;;;;28.49;26.03;100119.94;6226003;23;20012;-91
2023/03/25 10:01:41;;;;;;;12.68;1.83;;;;;;;27.68;25.83;100110.59;6197575;23;20008;-90
2023/03/25 10:04:20;;;;;;;12.07;1.95;;;;;;;26.41;29.06;100100.63;6225762;23;20083;-89
2023/03/25 10:07:14;;;;;;;35.85;3.03;;;;;;;27.67;27.22;100097.28;6196799;23;20024;-89
2023/03/25 10:09:53;;;;;;;19.13;2.53;;;;;;;27.39;26.72;100095.28;6225805;23;20040;-91
2023/03/25 10:12:52;;;;;;;21.42;2.10;;;;;;;28.03;23.95;100106.75;6223676;23;20071;-88
2023/03/25 10:15:38;;;;;;;16.83;1.95;;;;;;;27.78;25.33;100098.81;6224270;23;20066;-91
2023/03/25 10:18:16;;;;;;;22.05;2.30;;;;;;;27.92;25.06;100088.88;6225861;23;20040;-93
2023/03/25 10:20:48;;;;;;;16.23;1.75;;;;;;;27.70;25.36;100102.97;6175221;23;20009;-92
2023/03/25 10:23:17;;;;;;;21.00;2.22;;;;;;;28.85;24.10;100110.25;6199748;23;20016;-92
2023/03/25 10:25:46;;;;;;;14.75;1.70;;;;;;;28.02;25.39;100105.13;6221673;23;20019;-88
2023/03/25 10:28:19;;;;;;;13.40;1.73;;;;;;;27.39;25.65;100096.09;6218777;23;20013;-91
2023/03/25 10:30:55;;;;;;;18.73;2.00;;;;;;;27.80;26.50;100107.50;6224812;23;20016;-91
2023/03/25 10:35:48;;;;;;;9.63;1.47;;;;;;;28.14;25.36;100123.84;6224469;22;20403;-89
2023/03/25 10:38:25;;;;;;;10.45;1.63;;;;;;;28.37;24.14;100122.25;6173630;23;20044;-91
2023/03/25 10:41:02;;;;;;;15.80;1.50;;;;;;;27.88;24.65;100116.97;6206616;23;20015;-91
2023/03/25 10:43:42;;;;;;;6.60;1.77;;;;;;;29.31;23.11;100115.09;6202321;23;20016;-91
2023/03/25 10:46:37;;;;;;;9.98;1.38;;;;;;;30.14;22.03;100107.75;6204413;23;20015;-91
2023/03/25 10:49:07;;;;;;;16.55;2.08;;;;;;;31.08;21.25;100127.25;6195995;23;20044;-91
2023/03/25 10:51:35;;;;;;;5.50;1.20;;;;;;;30.49;21.52;100119.16;6227780;23;20031;-90
2023/03/25 10:54:03;;;;;;;16.60;1.25;;;;;;;31.11;20.64;100112.97;6227233;23;20050;-90
2023/03/25 10:56:40;;;;;;;22.17;1.63;;;;;;;31.17;19.33;100119.94;6230328;23;20023;-93
2023/03/25 10:59:23;;;;;;;24.42;1.98;;;;;;;30.90;19.71;100109.00;6200487;23;20085;-91
2023/03/25 11:01:52;;;;;;;52.15;3.58;;;;;;;31.36;19.41;100105.25;6224979;23;20028;-92
2023/03/25 11:04:20;;;;;;;31.40;2.65;;;;;;;31.83;19.22;100101.94;6193008;23;20008;-84
2023/03/25 11:06:54;;;;;;;7.93;1.27;;;;;;;31.39;19.59;100099.19;6195266;23;20466;-90
2023/03/25 11:09:29;;;;;;;5.78;1.00;;;;;;;30.43;19.49;100103.94;6226384;23;20032;-92
2023/03/25 11:11:59;;;;;;;10.75;1.10;;;;;;;30.54;20.10;100097.16;6201386;23;20020;-91
2023/03/25 11:14:28;;;;;;;6.80;1.00;;;;;;;28.97;20.80;100104.38;6226443;22;20053;-86
2023/03/25 11:17:02;;;;;;;12.73;1.35;;;;;;;29.18;20.56;100094.78;6165837;23;20035;-88
2023/03/25 11:19:45;;;;;;;4.28;0.73;;;;;;;29.46;20.07;100093.06;6217296;23;20021;-85
2023/03/25 11:22:29;;;;;;;6.85;0.80;;;;;;;29.26;17.93;100085.16;6216731;23;20528;-88
2023/03/25 11:25:05;;;;;;;6.57;0.68;;;;;;;29.45;18.59;100081.31;6222681;23;20412;-86
2023/03/25 11:27:43;;;;;;;5.57;0.95;;;;;;;30.98;18.26;100089.16;6192087;23;20012;-89
2023/03/25 11:30:20;;;;;;;5.95;0.88;;;;;;;29.69;18.46;100089.41;6229239;23;20424;-91
2023/03/25 11:33:11;;;;;;;1.40;0.50;;;;;;;30.22;18.54;100085.19;6221929;23;20440;-89
2023/03/25 11:35:42;;;;;;;2.60;0.80;;;;;;;29.27;18.71;100070.41;6196731;23;20019;-90
2023/03/25 11:38:19;;;;;;;2.50;0.60;;;;;;;29.10;18.55;100071.69;6198197;23;20031;-86
2023/03/25 11:40:56;;;;;;;1.90;0.60;;;;;;;29.33;18.35;100056.41;6218905;23;20364;-88
2023/03/25 11:43:25;;;;;;;7.13;1.10;;;;;;;29.14;18.05;100055.53;6193388;23;20049;-87
2023/03/25 11:46:09;;;;;;;2.17;0.55;;;;;;;28.54;18.28;100057.16;6229471;23;20076;-89
2023/03/25 11:48:39;;;;;;;4.47;0.52;;;;;;;28.34;18.41;100062.88;6179099;23;20013;-89
2023/03/25 11:51:10;;;;;;;4.55;0.80;;;;;;;29.16;18.30;100054.16;6228175;23;20012;-90
2023/03/25 11:56:25;;;;;;;2.92;0.50;;;;;;;29.61;14.65;100054.56;6237175;22;20034;-90
2023/03/25 11:59:19;;;;;;;1.98;0.77;;;;;;;29.74;14.83;100059.25;6211680;23;20000;-89
2023/03/25 12:01:54;;;;;;;4.22;0.98;;;;;;;29.86;16.11;100062.38;6218776;23;20006;-90
2023/03/25 12:05:04;;;;;;;6.18;0.90;;;;;;;28.47;15.20;100052.06;6208239;23;20016;-91
2023/03/25 12:07:48;;;;;;;3.10;0.38;;;;;;;26.30;16.76;100036.53;6229317;23;20068;-90
2023/03/25 12:10:56;;;;;;;3.22;0.85;;;;;;;25.31;18.50;100029.81;6178487;23;20479;-88
2023/03/25 12:16:33;;;;;;;5.30;0.93;;;;;;;24.44;19.20;100010.88;6200815;23;20028;-87
2023/03/25 12:19:33;;;;;;;5.30;0.80;;;;;;;23.69;19.53;100012.09;6196372;23;20019;-88
2023/03/25 12:22:04;;;;;;;2.72;0.63;;;;;;;23.89;18.91;100008.69;6171274;23;20085;-87
2023/03/25 12:24:41;;;;;;;1.35;0.50;;;;;;;23.60;18.70;100010.91;6196570;23;20009;-89
2023/03/25 12:27:41;;;;;;;4.65;0.75;;;;;;;23.76;23.31;99993.75;6197040;23;20036;-89